Terminal Aerodrome Forecast
Issued by NWS

Home | Current Version | Previous Version | Text Only | Print | Product List | Glossary On
Versions: 1 2 3 4 5 6 7 8 9 10 11 12 13 14
747
FTUS45 KABQ 231120
TAFSAF
TAF
KSAF 231120Z 2312/2412 36007KT P6SM FEW250
      TEMPO 2312/2316 36014G22KT
     FM231900 33009KT P6SM SCT250
     FM240200 12014G20KT P6SM SCT250=

USA.gov is the U.S. government's official web portal to all federal, state and local government web resources and services.